Time;durP1;ratioP1;P1;durP2;ratioP2;P2;SDS_P1;SDS_P2;PMS_P1;PMS_P2;Temp;Humidity;BMP_temperature;BMP_pressure;BME280_temperature;BME280_humidity;BME280_pressure;Samples;Min_cycle;Max_cycle;Signal;HPM_P1;HPM_P2
2024/02/16 00:00:39;;;;;;;;;;;;;;;;;;4968711;28;4519;-64
2024/02/16 00:03:04;;;;;;;;;;;;;;;;;;4964902;28;3404;-64
2024/02/16 00:05:30;;;;;;;;;;;;;;;;;;4967342;28;5036;-64
2024/02/16 00:07:55;;;;;;;;;;;;;;;;;;4968192;28;4773;-64
2024/02/16 00:10:21;;;;;;;;;;;;;;;;;;4961324;28;4658;-65
2024/02/16 00:12:47;;;;;;;;;;;;;;;;;;4941381;28;5058;-65
2024/02/16 00:15:12;;;;;;;;;;;;;;;;;;4963224;28;4523;-65
2024/02/16 00:17:37;;;;;;;;;;;;;;;;;;4961169;28;3919;-64
2024/02/16 00:20:03;;;;;;;;;;;;;;;;;;4961964;28;5011;-65
2024/02/16 00:22:28;;;;;;;;;;;;;;;;;;4965056;28;5019;-64
2024/02/16 00:24:53;;;;;;;;;;;;;;;;;;4964163;28;4719;-64
2024/02/16 00:27:19;;;;;;;;;;;;;;;;;;4966719;28;4664;-66
2024/02/16 00:29:46;;;;;;;;;;;;;;;;;;4968389;28;3516;-65
2024/02/16 00:32:12;;;;;;;;;;;;;;;;;;4965534;28;5075;-64
2024/02/16 00:34:38;;;;;;;;;;;;;;;;;;4963742;28;4797;-65
2024/02/16 00:37:08;;;;;;;;;;;;;;;;;;4959995;28;4534;-64
2024/02/16 00:39:33;;;;;;;;;;;;;;;;;;4962860;28;5095;-65
2024/02/16 00:41:58;;;;;;;;;;;;;;;;;;4962567;28;3911;-64
2024/02/16 00:44:23;;;;;;;;;;;;;;;;;;4961973;28;4687;-64
2024/02/16 00:46:49;;;;;;;;;;;;;;;;;;4946452;28;5107;-64
2024/02/16 00:49:14;;;;;;;;;;;;;;;;;;4930845;28;5197;-64
2024/02/16 00:51:39;;;;;;;;;;;;;;;;;;4962976;28;4775;-64
2024/02/16 00:54:05;;;;;;;;;;;;;;;;;;4968168;28;3439;-64
2024/02/16 00:56:30;;;;;;;;;;;;;;;;;;4954379;28;5106;-64
2024/02/16 00:58:56;;;;;;;;;;;;;;;;;;4954846;28;5130;-64
2024/02/16 01:01:22;;;;;;;;;;;;;;;;;;4963433;28;5317;-64
2024/02/16 01:03:48;;;;;;;;;;;;;;;;;;4963561;28;4812;-64
2024/02/16 01:06:13;;;;;;;;;;;;;;;;;;4965650;28;5273;-65
2024/02/16 01:08:38;;;;;;;;;;;;;;;;;;4963135;28;3543;-64
2024/02/16 01:11:04;;;;;;;;;;;;;;;;;;4959580;28;4775;-65
2024/02/16 01:13:29;;;;;;;;;;;;;;;;;;4950919;28;5069;-65
2024/02/16 01:15:54;;;;;;;;;;;;;;;;;;4963956;28;5012;-65
2024/02/16 01:18:20;;;;;;;;;;;;;;;;;;4963552;28;4710;-65
2024/02/16 01:20:45;;;;;;;;;;;;;;;;;;4967692;28;3484;-65
2024/02/16 01:23:10;;;;;;;;;;;;;;;;;;4961436;28;4882;-66
2024/02/16 01:25:36;;;;;;;;;;;;;;;;;;4962940;28;5125;-65
2024/02/16 01:28:01;;;;;;;;;;;;;;;;;;4956968;28;5291;-65
2024/02/16 01:30:26;;;;;;;;;;;;;;;;;;4960729;28;5057;-65
2024/02/16 01:32:52;;;;;;;;;;;;;;;;;;4967755;28;3448;-65
2024/02/16 01:35:18;;;;;;;;;;;;;;;;;;4943224;28;4804;-65
2024/02/16 01:37:43;;;;;;;;;;;;;;;;;;4960689;28;5205;-65
2024/02/16 01:40:13;;;;;;;;;;;;;;;;;;4964341;28;5077;-64
2024/02/16 01:42:39;;;;;;;;;;;;;;;;;;4960654;28;4540;-65
2024/02/16 01:45:04;;;;;;;;;;;;;;;;;;4959358;28;3496;-65
2024/02/16 01:47:29;;;;;;;;;;;;;;;;;;4963411;28;4946;-65
2024/02/16 01:49:55;;;;;;;;;;;;;;;;;;4958243;28;5307;-64
2024/02/16 01:52:20;;;;;;;;;;;;;;;;;;4960216;28;4699;-65
2024/02/16 01:54:45;;;;;;;;;;;;;;;;;;4961011;28;5131;-65
2024/02/16 01:57:12;;;;;;;;;;;;;;;;;;4959386;28;4580;-65
2024/02/16 01:59:40;;;;;;;;;;;;;;;;;;4954116;28;3948;-64
2024/02/16 02:02:05;;;;;;;;;;;;;;;;;;4945725;28;4580;-65
2024/02/16 02:04:30;;;;;;;;;;;;;;;;;;4962668;28;4640;-64
2024/02/16 02:06:56;;;;;;;;;;;;;;;;;;4961432;28;5186;-64
2024/02/16 02:09:21;;;;;;;;;;;;;;;;;;4947024;28;4563;-64
2024/02/16 02:11:46;;;;;;;;;;;;;;;;;;4970418;28;3432;-64
2024/02/16 02:14:12;;;;;;;;;;;;;;;;;;4968763;28;4543;-65
2024/02/16 02:16:37;;;;;;;;;;;;;;;;;;4965881;28;5196;-65
2024/02/16 02:19:02;;;;;;;;;;;;;;;;;;4965962;28;5095;-65
2024/02/16 02:21:28;;;;;;;;;;;;;;;;;;4953273;28;5115;-65
2024/02/16 02:23:53;;;;;;;;;;;;;;;;;;4970619;28;1910;-65
2024/02/16 02:26:18;;;;;;;;;;;;;;;;;;4964659;28;4990;-65
2024/02/16 02:28:44;;;;;;;;;;;;;;;;;;4969407;28;4704;-65
2024/02/16 02:31:09;;;;;;;;;;;;;;;;;;4970857;28;5324;-65
2024/02/16 02:33:35;;;;;;;;;;;;;;;;;;4964150;28;4776;-63
2024/02/16 02:36:00;;;;;;;;;;;;;;;;;;4962047;28;1048;-63
2024/02/16 02:38:26;;;;;;;;;;;;;;;;;;4969310;28;4473;-63
2024/02/16 02:40:52;;;;;;;;;;;;;;;;;;4967274;28;5072;-65
2024/02/16 02:43:19;;;;;;;;;;;;;;;;;;4971236;28;4537;-65
2024/02/16 02:45:44;;;;;;;;;;;;;;;;;;4951976;28;4675;-65
2024/02/16 02:48:10;;;;;;;;;;;;;;;;;;4962669;28;4594;-65
2024/02/16 02:50:35;;;;;;;;;;;;;;;;;;4960712;28;1182;-65
2024/02/16 02:53:00;;;;;;;;;;;;;;;;;;4971203;28;5031;-65
2024/02/16 02:55:26;;;;;;;;;;;;;;;;;;4971286;28;4744;-65
2024/02/16 02:57:52;;;;;;;;;;;;;;;;;;4967228;28;5114;-64
2024/02/16 03:00:17;;;;;;;;;;;;;;;;;;4971913;28;5040;-65
2024/02/16 03:02:44;;;;;;;;;;;;;;;;;;4972512;28;1028;-65
2024/02/16 03:05:09;;;;;;;;;;;;;;;;;;4971386;28;4545;-65
2024/02/16 03:07:35;;;;;;;;;;;;;;;;;;4970768;28;5232;-64
2024/02/16 03:10:00;;;;;;;;;;;;;;;;;;4971122;28;5109;-65
2024/02/16 03:12:25;;;;;;;;;;;;;;;;;;4971051;28;4633;-65
2024/02/16 03:14:51;;;;;;;;;;;;;;;;;;4971590;28;1099;-65
2024/02/16 03:17:16;;;;;;;;;;;;;;;;;;4953846;28;4670;-64
2024/02/16 03:19:41;;;;;;;;;;;;;;;;;;4970489;28;5031;-65
2024/02/16 03:22:07;;;;;;;;;;;;;;;;;;4970849;28;4547;-65
2024/02/16 03:24:32;;;;;;;;;;;;;;;;;;4970941;28;4602;-65
2024/02/16 03:26:58;;;;;;;;;;;;;;;;;;4968449;28;1394;-64
2024/02/16 03:29:23;;;;;;;;;;;;;;;;;;4962879;28;4450;-64
2024/02/16 03:31:50;;;;;;;;;;;;;;;;;;4967392;28;5113;-64
2024/02/16 03:34:15;;;;;;;;;;;;;;;;;;4964156;28;5075;-64
2024/02/16 03:36:40;;;;;;;;;;;;;;;;;;4964601;28;4615;-64
2024/02/16 03:39:08;;;;;;;;;;;;;;;;;;4965994;28;1111;-65
2024/02/16 03:41:33;;;;;;;;;;;;;;;;;;4970563;28;4584;-65
2024/02/16 03:44:00;;;;;;;;;;;;;;;;;;4962278;28;4690;-66
2024/02/16 03:46:25;;;;;;;;;;;;;;;;;;4966083;28;5077;-65
2024/02/16 03:48:50;;;;;;;;;;;;;;;;;;4964588;28;5071;-64
2024/02/16 03:51:16;;;;;;;;;;;;;;;;;;4964634;28;4794;-64
2024/02/16 03:53:41;;;;;;;;;;;;;;;;;;4968708;28;1166;-64
2024/02/16 03:56:07;;;;;;;;;;;;;;;;;;4969906;28;4549;-64
2024/02/16 03:58:32;;;;;;;;;;;;;;;;;;4961283;28;4567;-64
2024/02/16 04:00:58;;;;;;;;;;;;;;;;;;4952925;28;4605;-65
2024/02/16 04:03:23;;;;;;;;;;;;;;;;;;4970051;28;5080;-65
2024/02/16 04:05:49;;;;;;;;;;;;;;;;;;4946513;28;1170;-65
2024/02/16 04:08:14;;;;;;;;;;;;;;;;;;4966654;28;5074;-65
2024/02/16 04:10:40;;;;;;;;;;;;;;;;;;4970287;28;4533;-65
2024/02/16 04:13:05;;;;;;;;;;;;;;;;;;4951816;28;5187;-65
2024/02/16 04:15:30;;;;;;;;;;;;;;;;;;4970419;28;5113;-65
2024/02/16 04:17:56;;;;;;;;;;;;;;;;;;4967858;28;1099;-65
2024/02/16 04:20:21;;;;;;;;;;;;;;;;;;4969901;28;5070;-65
2024/02/16 04:22:47;;;;;;;;;;;;;;;;;;4969755;28;5239;-64
2024/02/16 04:25:13;;;;;;;;;;;;;;;;;;4951862;28;5124;-64
2024/02/16 04:27:38;;;;;;;;;;;;;;;;;;4947067;28;5146;-64
2024/02/16 04:30:04;;;;;;;;;;;;;;;;;;4966206;28;1118;-65
2024/02/16 04:32:29;;;;;;;;;;;;;;;;;;4962187;28;5137;-65
2024/02/16 04:34:55;;;;;;;;;;;;;;;;;;4964539;28;5174;-64
2024/02/16 04:37:21;;;;;;;;;;;;;;;;;;4969312;28;4536;-64
2024/02/16 04:39:46;;;;;;;;;;;;;;;;;;4962617;28;5011;-64
2024/02/16 04:42:12;;;;;;;;;;;;;;;;;;4966190;28;5102;-64
2024/02/16 04:44:40;;;;;;;;;;;;;;;;;;4968314;28;1918;-64
2024/02/16 04:47:05;;;;;;;;;;;;;;;;;;4967031;28;5158;-64
2024/02/16 04:49:31;;;;;;;;;;;;;;;;;;4966955;28;4711;-64
2024/02/16 04:51:56;;;;;;;;;;;;;;;;;;4952080;28;5246;-64
2024/02/16 04:54:22;;;;;;;;;;;;;;;;;;4969717;28;4477;-65
2024/02/16 04:56:47;;;;;;;;;;;;;;;;;;4969005;28;1517;-64
2024/02/16 04:59:13;;;;;;;;;;;;;;;;;;4967259;28;5133;-64
2024/02/16 05:01:38;;;;;;;;;;;;;;;;;;4969903;28;5202;-64
2024/02/16 05:04:04;;;;;;;;;;;;;;;;;;4969195;28;4942;-65
2024/02/16 05:06:29;;;;;;;;;;;;;;;;;;4964071;28;5219;-65
2024/02/16 05:08:56;;;;;;;;;;;;;;;;;;4969656;28;1323;-62
2024/02/16 05:11:21;;;;;;;;;;;;;;;;;;4951730;28;5077;-65
2024/02/16 05:13:47;;;;;;;;;;;;;;;;;;4968127;28;4683;-65
2024/02/16 05:16:13;;;;;;;;;;;;;;;;;;4968549;28;5116;-64
2024/02/16 05:18:38;;;;;;;;;;;;;;;;;;4968592;28;5020;-62
2024/02/16 05:21:03;;;;;;;;;;;;;;;;;;4951605;28;1153;-65
2024/02/16 05:23:29;;;;;;;;;;;;;;;;;;4968699;28;4744;-64
2024/02/16 05:25:54;;;;;;;;;;;;;;;;;;4966822;28;5043;-64
2024/02/16 05:28:19;;;;;;;;;;;;;;;;;;4964155;28;5086;-65
2024/02/16 05:30:45;;;;;;;;;;;;;;;;;;4967393;28;4837;-64
2024/02/16 05:33:10;;;;;;;;;;;;;;;;;;4963356;28;5265;-65
2024/02/16 05:35:39;;;;;;;;;;;;;;;;;;4959741;28;1137;-64
2024/02/16 05:38:10;;;;;;;;;;;;;;;;;;4960958;28;5049;-65
2024/02/16 05:40:45;;;;;;;;;;;;;;;;;;4966897;28;5077;-64
2024/02/16 05:43:10;;;;;;;;;;;;;;;;;;4955932;28;5099;-64
2024/02/16 05:45:35;;;;;;;;;;;;;;;;;;4968274;28;5029;-62
2024/02/16 05:48:01;;;;;;;;;;;;;;;;;;4963057;28;1024;-63
2024/02/16 05:50:26;;;;;;;;;;;;;;;;;;4968270;28;5002;-64
2024/02/16 05:52:51;;;;;;;;;;;;;;;;;;4968575;28;4897;-63
2024/02/16 05:55:18;;;;;;;;;;;;;;;;;;4967629;28;5140;-63
2024/02/16 05:57:44;;;;;;;;;;;;;;;;;;4945125;28;5658;-63
2024/02/16 06:00:11;;;;;;;;;;;;;;;;;;4968470;28;5306;-62
2024/02/16 06:02:36;;;;;;;;;;;;;;;;;;4966446;28;1276;-64
2024/02/16 06:05:02;;;;;;;;;;;;;;;;;;4968004;28;5182;-64
2024/02/16 06:07:28;;;;;;;;;;;;;;;;;;4964435;28;5102;-64
2024/02/16 06:09:54;;;;;;;;;;;;;;;;;;4950798;28;4991;-64
2024/02/16 06:12:20;;;;;;;;;;;;;;;;;;4950776;28;5272;-64
2024/02/16 06:14:45;;;;;;;;;;;;;;;;;;4968762;28;1088;-65
2024/02/16 06:17:11;;;;;;;;;;;;;;;;;;4968403;28;4736;-65
2024/02/16 06:19:36;;;;;;;;;;;;;;;;;;4968359;28;5146;-64
2024/02/16 06:22:02;;;;;;;;;;;;;;;;;;4968612;28;5227;-64
2024/02/16 06:24:27;;;;;;;;;;;;;;;;;;4950672;28;5058;-65
2024/02/16 06:26:54;;;;;;;;;;;;;;;;;;4962785;28;1560;-64
2024/02/16 06:29:19;;;;;;;;;;;;;;;;;;4966800;28;5565;-64
2024/02/16 06:31:46;;;;;;;;;;;;;;;;;;4962074;28;5220;-64
2024/02/16 06:34:11;;;;;;;;;;;;;;;;;;4960405;28;5184;-64
2024/02/16 06:36:36;;;;;;;;;;;;;;;;;;4962038;28;5083;-64
2024/02/16 06:39:02;;;;;;;;;;;;;;;;;;4957280;28;3656;-64
2024/02/16 06:41:28;;;;;;;;;;;;;;;;;;4954272;28;4684;-64
2024/02/16 06:43:53;;;;;;;;;;;;;;;;;;4961767;28;4560;-64
2024/02/16 06:46:18;;;;;;;;;;;;;;;;;;4963831;28;5103;-65
2024/02/16 06:48:44;;;;;;;;;;;;;;;;;;4958673;28;5182;-59
2024/02/16 06:51:09;;;;;;;;;;;;;;;;;;4955854;28;3534;-58
2024/02/16 06:53:34;;;;;;;;;;;;;;;;;;4964275;28;5176;-57
2024/02/16 06:56:00;;;;;;;;;;;;;;;;;;4961418;28;5025;-58
2024/02/16 06:58:25;;;;;;;;;;;;;;;;;;4967983;28;5177;-58
2024/02/16 07:00:50;;;;;;;;;;;;;;;;;;4971626;28;5085;-58
2024/02/16 07:03:16;;;;;;;;;;;;;;;;;;4970262;28;5100;-58
2024/02/16 07:05:41;;;;;;;;;;;;;;;;;;4971414;28;1119;-59
2024/02/16 07:08:07;;;;;;;;;;;;;;;;;;4970255;28;4706;-58
2024/02/16 07:10:33;;;;;;;;;;;;;;;;;;4959647;28;5078;-58
2024/02/16 07:12:58;;;;;;;;;;;;;;;;;;4969175;28;5091;-59
2024/02/16 07:15:24;;;;;;;;;;;;;;;;;;4969055;28;5026;-59
2024/02/16 07:17:49;;;;;;;;;;;;;;;;;;4968941;28;1095;-59
2024/02/16 07:20:15;;;;;;;;;;;;;;;;;;4965933;28;5241;-58
2024/02/16 07:22:41;;;;;;;;;;;;;;;;;;4969277;28;4689;-59
2024/02/16 07:25:08;;;;;;;;;;;;;;;;;;4968882;28;5030;-58
2024/02/16 07:27:33;;;;;;;;;;;;;;;;;;4968886;28;6000;-58
2024/02/16 07:29:58;;;;;;;;;;;;;;;;;;4967634;28;1084;-58
2024/02/16 07:32:25;;;;;;;;;;;;;;;;;;4968675;28;4655;-58
2024/02/16 07:34:51;;;;;;;;;;;;;;;;;;4966065;28;5108;-57
2024/02/16 07:37:16;;;;;;;;;;;;;;;;;;4965568;28;4529;-59
2024/02/16 07:39:41;;;;;;;;;;;;;;;;;;4971067;28;4484;-58
2024/02/16 07:42:09;;;;;;;;;;;;;;;;;;4946465;28;1202;-59
2024/02/16 07:44:34;;;;;;;;;;;;;;;;;;4943920;28;4398;-59
2024/02/16 07:47:00;;;;;;;;;;;;;;;;;;4951422;28;5198;-58
2024/02/16 07:49:25;;;;;;;;;;;;;;;;;;4967135;28;5268;-58
2024/02/16 07:51:50;;;;;;;;;;;;;;;;;;4970226;28;4662;-58
2024/02/16 07:54:16;;;;;;;;;;;;;;;;;;4958453;28;4471;-58
2024/02/16 07:56:41;;;;;;;;;;;;;;;;;;4970708;28;1544;-59
2024/02/16 07:59:07;;;;;;;;;;;;;;;;;;4968099;28;5073;-59
2024/02/16 08:01:32;;;;;;;;;;;;;;;;;;4970196;28;5075;-58
2024/02/16 08:03:57;;;;;;;;;;;;;;;;;;4969689;28;4742;-59
2024/02/16 08:06:26;;;;;;;;;;;;;;;;;;4969873;28;5449;-59
2024/02/16 08:08:52;;;;;;;;;;;;;;;;;;4970076;28;1318;-59
2024/02/16 08:11:17;;;;;;;;;;;;;;;;;;4969684;28;5082;-58
2024/02/16 08:13:42;;;;;;;;;;;;;;;;;;4969514;28;4754;-59
2024/02/16 08:16:08;;;;;;;;;;;;;;;;;;4969510;28;4696;-59
2024/02/16 08:18:34;;;;;;;;;;;;;;;;;;4970058;28;5095;-58
2024/02/16 08:20:59;;;;;;;;;;;;;;;;;;4970281;28;1080;-59
2024/02/16 08:23:26;;;;;;;;;;;;;;;;;;4969872;28;4470;-58
2024/02/16 08:25:51;;;;;;;;;;;;;;;;;;4969384;28;4923;-59
2024/02/16 08:28:17;;;;;;;;;;;;;;;;;;4963954;28;5120;-59
2024/02/16 08:30:43;;;;;;;;;;;;;;;;;;4969500;28;5014;-59
2024/02/16 08:33:09;;;;;;;;;;;;;;;;;;4963065;28;1126;-59
2024/02/16 08:35:34;;;;;;;;;;;;;;;;;;4967905;28;4503;-59
2024/02/16 08:38:00;;;;;;;;;;;;;;;;;;4965763;28;5066;-59
2024/02/16 08:40:25;;;;;;;;;;;;;;;;;;4967222;28;5028;-59
2024/02/16 08:42:50;;;;;;;;;;;;;;;;;;4964246;28;5101;-59
2024/02/16 08:45:17;;;;;;;;;;;;;;;;;;4968287;28;5070;-59
2024/02/16 08:47:43;;;;;;;;;;;;;;;;;;4965541;28;1184;-58
2024/02/16 08:50:09;;;;;;;;;;;;;;;;;;4966312;28;5017;-59
2024/02/16 08:52:34;;;;;;;;;;;;;;;;;;4965735;28;5141;-57
2024/02/16 08:54:59;;;;;;;;;;;;;;;;;;4960898;28;5001;-59
2024/02/16 08:57:25;;;;;;;;;;;;;;;;;;4967321;28;5062;-59
2024/02/16 08:59:50;;;;;;;;;;;;;;;;;;4967259;28;1130;-59
2024/02/16 09:02:15;;;;;;;;;;;;;;;;;;4948403;28;4960;-59
2024/02/16 09:04:41;;;;;;;;;;;;;;;;;;4943289;28;5231;-59
2024/02/16 09:07:06;;;;;;;;;;;;;;;;;;4966831;28;5157;-59
2024/02/16 09:09:31;;;;;;;;;;;;;;;;;;4967954;28;5081;-58
2024/02/16 09:11:57;;;;;;;;;;;;;;;;;;4966938;28;1088;-58
2024/02/16 09:14:23;;;;;;;;;;;;;;;;;;4950187;28;5060;-58
2024/02/16 09:16:48;;;;;;;;;;;;;;;;;;4966118;28;4672;-59
2024/02/16 09:19:14;;;;;;;;;;;;;;;;;;4967724;28;5054;-59
2024/02/16 09:21:39;;;;;;;;;;;;;;;;;;4966066;28;5204;-59
2024/02/16 09:24:10;;;;;;;;;;;;;;;;;;4968760;28;1922;-59
2024/02/16 09:26:35;;;;;;;;;;;;;;;;;;4963421;28;4788;-58
2024/02/16 09:29:00;;;;;;;;;;;;;;;;;;4967494;28;5095;-58
2024/02/16 09:31:26;;;;;;;;;;;;;;;;;;4964153;28;4497;-58
2024/02/16 09:33:51;;;;;;;;;;;;;;;;;;4967962;28;5184;-59
2024/02/16 09:36:17;;;;;;;;;;;;;;;;;;4962747;28;5160;-59
2024/02/16 09:38:42;;;;;;;;;;;;;;;;;;4963669;28;1102;-59
2024/02/16 09:41:07;;;;;;;;;;;;;;;;;;4968506;28;5089;-58
2024/02/16 09:43:33;;;;;;;;;;;;;;;;;;4943724;28;4744;-58
2024/02/16 09:45:59;;;;;;;;;;;;;;;;;;4964030;28;5178;-59
2024/02/16 09:48:26;;;;;;;;;;;;;;;;;;4956267;28;5105;-59
2024/02/16 09:50:51;;;;;;;;;;;;;;;;;;4966011;28;1339;-59
2024/02/16 09:53:17;;;;;;;;;;;;;;;;;;4941055;28;4532;-60
2024/02/16 09:55:42;;;;;;;;;;;;;;;;;;4961132;28;5210;-59
2024/02/16 09:58:07;;;;;;;;;;;;;;;;;;4965465;28;5317;-59
2024/02/16 10:00:33;;;;;;;;;;;;;;;;;;4966987;28;4591;-59
2024/02/16 10:02:58;;;;;;;;;;;;;;;;;;4968085;28;1000;-59
2024/02/16 10:05:23;;;;;;;;;;;;;;;;;;4966655;28;5180;-59
2024/02/16 10:07:49;;;;;;;;;;;;;;;;;;4967211;28;5048;-59
2024/02/16 10:10:20;;;;;;;;;;;;;;;;;;4966718;28;5145;-59
2024/02/16 10:12:45;;;;;;;;;;;;;;;;;;4967034;28;5036;-59
2024/02/16 10:15:11;;;;;;;;;;;;;;;;;;4966796;28;4658;-58
2024/02/16 10:17:36;;;;;;;;;;;;;;;;;;4968362;28;1197;-59
2024/02/16 10:20:06;;;;;;;;;;;;;;;;;;4934764;28;5186;-59
2024/02/16 10:22:32;;;;;;;;;;;;;;;;;;4950295;28;5198;-59
2024/02/16 10:25:11;;;;;;;;;;;;;;;;;;4966903;28;5226;-59
2024/02/16 10:27:36;;;;;;;;;;;;;;;;;;4960252;28;4673;-59
2024/02/16 10:30:02;;;;;;;;;;;;;;;;;;4970940;28;1266;-59
2024/02/16 10:32:27;;;;;;;;;;;;;;;;;;4954850;28;5087;-59
2024/02/16 10:34:53;;;;;;;;;;;;;;;;;;4947469;28;5123;-59
2024/02/16 10:37:18;;;;;;;;;;;;;;;;;;4968476;28;5074;-59
2024/02/16 10:39:44;;;;;;;;;;;;;;;;;;4951868;28;5298;-59
2024/02/16 10:42:09;;;;;;;;;;;;;;;;;;4951958;28;1158;-60
2024/02/16 10:44:35;;;;;;;;;;;;;;;;;;4943213;28;5043;-60
2024/02/16 10:47:00;;;;;;;;;;;;;;;;;;4969090;28;5174;-59
2024/02/16 10:49:26;;;;;;;;;;;;;;;;;;4966729;28;4518;-59
2024/02/16 10:51:52;;;;;;;;;;;;;;;;;;4971693;28;4761;-59
2024/02/16 10:54:19;;;;;;;;;;;;;;;;;;4971387;28;4544;-59
2024/02/16 10:56:44;;;;;;;;;;;;;;;;;;4970516;28;1337;-60
2024/02/16 10:59:10;;;;;;;;;;;;;;;;;;4967663;28;4947;-60
2024/02/16 11:01:42;;;;;;;;;;;;;;;;;;4970727;28;5097;-60
2024/02/16 11:04:08;;;;;;;;;;;;;;;;;;4951179;28;4730;-59
2024/02/16 11:06:44;;;;;;;;;;;;;;;;;;4971094;28;4788;-59
2024/02/16 11:09:10;;;;;;;;;;;;;;;;;;4963316;28;1143;-59
2024/02/16 11:11:36;;;;;;;;;;;;;;;;;;4969194;28;5088;-59
2024/02/16 11:14:02;;;;;;;;;;;;;;;;;;4970104;28;4690;-59
2024/02/16 11:16:27;;;;;;;;;;;;;;;;;;4969275;28;5268;-59
2024/02/16 11:18:52;;;;;;;;;;;;;;;;;;4969860;28;5291;-59
2024/02/16 11:21:18;;;;;;;;;;;;;;;;;;4969791;28;5121;-59
2024/02/16 11:23:44;;;;;;;;;;;;;;;;;;4970710;28;1914;-59
2024/02/16 11:26:12;;;;;;;;;;;;;;;;;;4948131;28;5104;-59
2024/02/16 11:28:38;;;;;;;;;;;;;;;;;;4967682;28;5036;-59
2024/02/16 11:31:04;;;;;;;;;;;;;;;;;;4953232;28;5096;-59
2024/02/16 11:33:32;;;;;;;;;;;;;;;;;;4970645;28;5085;-59
2024/02/16 11:35:58;;;;;;;;;;;;;;;;;;4964354;28;1163;-59
2024/02/16 11:38:23;;;;;;;;;;;;;;;;;;4970772;28;5310;-59
2024/02/16 11:41:05;;;;;;;;;;;;;;;;;;4970185;28;4508;-59
2024/02/16 11:43:30;;;;;;;;;;;;;;;;;;4964180;28;5023;-59
2024/02/16 11:45:55;;;;;;;;;;;;;;;;;;4950744;28;5068;-59
2024/02/16 11:48:24;;;;;;;;;;;;;;;;;;4962771;28;5188;-59
2024/02/16 11:50:49;;;;;;;;;;;;;;;;;;4968252;28;1092;-59
2024/02/16 11:53:16;;;;;;;;;;;;;;;;;;4952858;28;5231;-59
2024/02/16 11:55:46;;;;;;;;;;;;;;;;;;4964149;28;4933;-59
2024/02/16 11:58:11;;;;;;;;;;;;;;;;;;4967201;28;5114;-59
2024/02/16 12:00:37;;;;;;;;;;;;;;;;;;4942526;28;4638;-59
2024/02/16 12:03:02;;;;;;;;;;;;;;;;;;4969030;28;1079;-59
2024/02/16 12:05:28;;;;;;;;;;;;;;;;;;4959164;28;5140;-59
2024/02/16 12:07:53;;;;;;;;;;;;;;;;;;4951482;28;5058;-60
2024/02/16 12:10:18;;;;;;;;;;;;;;;;;;4965419;28;5071;-59
2024/02/16 12:12:43;;;;;;;;;;;;;;;;;;4967597;28;5153;-59
2024/02/16 12:15:09;;;;;;;;;;;;;;;;;;4968124;28;1170;-59
2024/02/16 12:17:34;;;;;;;;;;;;;;;;;;4968459;28;4422;-59
2024/02/16 12:20:00;;;;;;;;;;;;;;;;;;4965481;28;4750;-59
2024/02/16 12:22:25;;;;;;;;;;;;;;;;;;4967759;28;5098;-59
2024/02/16 12:24:51;;;;;;;;;;;;;;;;;;4949027;28;5185;-60
2024/02/16 12:27:16;;;;;;;;;;;;;;;;;;4961701;28;5151;-59
2024/02/16 12:29:41;;;;;;;;;;;;;;;;;;4969757;28;2084;-60
2024/02/16 12:32:09;;;;;;;;;;;;;;;;;;4952296;28;4606;-59
2024/02/16 12:34:34;;;;;;;;;;;;;;;;;;4959361;28;5038;-59
2024/02/16 12:37:00;;;;;;;;;;;;;;;;;;4968770;28;5015;-59
2024/02/16 12:39:25;;;;;;;;;;;;;;;;;;4969527;28;4552;-59
2024/02/16 12:41:50;;;;;;;;;;;;;;;;;;4969605;28;1199;-59
2024/02/16 12:44:15;;;;;;;;;;;;;;;;;;4960868;28;5054;-59
2024/02/16 12:46:42;;;;;;;;;;;;;;;;;;4969323;28;5097;-59
2024/02/16 12:49:08;;;;;;;;;;;;;;;;;;4962275;28;5078;-59
2024/02/16 12:51:33;;;;;;;;;;;;;;;;;;4968694;28;5025;-59
2024/02/16 12:54:00;;;;;;;;;;;;;;;;;;4970154;28;1139;-59
2024/02/16 12:56:25;;;;;;;;;;;;;;;;;;4967544;28;5022;-59
2024/02/16 12:58:51;;;;;;;;;;;;;;;;;;4964160;28;4775;-59
2024/02/16 13:01:18;;;;;;;;;;;;;;;;;;4967632;28;5107;-59
2024/02/16 13:03:43;;;;;;;;;;;;;;;;;;4965620;28;5143;-59
2024/02/16 13:06:08;;;;;;;;;;;;;;;;;;4967852;28;1244;-59
2024/02/16 13:08:34;;;;;;;;;;;;;;;;;;4966681;28;5257;-59
2024/02/16 13:10:59;;;;;;;;;;;;;;;;;;4967191;28;4559;-59
2024/02/16 13:13:24;;;;;;;;;;;;;;;;;;4957668;28;5362;-59
2024/02/16 13:15:50;;;;;;;;;;;;;;;;;;4968030;28;5537;-59
2024/02/16 13:18:15;;;;;;;;;;;;;;;;;;4963968;28;5084;-59
2024/02/16 13:20:41;;;;;;;;;;;;;;;;;;4967839;28;1066;-60
2024/02/16 13:23:06;;;;;;;;;;;;;;;;;;4966628;28;5276;-59
2024/02/16 13:25:31;;;;;;;;;;;;;;;;;;4967022;28;5595;-59
2024/02/16 13:27:57;;;;;;;;;;;;;;;;;;4961121;28;5156;-59
2024/02/16 13:30:22;;;;;;;;;;;;;;;;;;4968778;28;5082;-59
2024/02/16 13:32:48;;;;;;;;;;;;;;;;;;4969326;28;1257;-59
2024/02/16 13:35:13;;;;;;;;;;;;;;;;;;4961600;28;4617;-59
2024/02/16 13:37:40;;;;;;;;;;;;;;;;;;4968554;28;5059;-60
2024/02/16 13:40:10;;;;;;;;;;;;;;;;;;4968419;28;4496;-59
2024/02/16 13:42:35;;;;;;;;;;;;;;;;;;4958654;28;4538;-59
2024/02/16 13:45:01;;;;;;;;;;;;;;;;;;4968941;28;1983;-59
2024/02/16 13:47:26;;;;;;;;;;;;;;;;;;4962849;28;5053;-59
2024/02/16 13:49:52;;;;;;;;;;;;;;;;;;4967114;28;4648;-59
2024/02/16 13:52:17;;;;;;;;;;;;;;;;;;4966792;28;5102;-59
2024/02/16 13:54:43;;;;;;;;;;;;;;;;;;4948351;28;4905;-59
2024/02/16 13:57:08;;;;;;;;;;;;;;;;;;4966233;28;1394;-59
2024/02/16 13:59:33;;;;;;;;;;;;;;;;;;4963373;28;4455;-59
2024/02/16 14:01:59;;;;;;;;;;;;;;;;;;4964457;28;5017;-59
2024/02/16 14:04:26;;;;;;;;;;;;;;;;;;4966186;28;5177;-59
2024/02/16 14:06:52;;;;;;;;;;;;;;;;;;4965272;28;5140;-59
2024/02/16 14:09:17;;;;;;;;;;;;;;;;;;4960267;28;6051;-59
2024/02/16 14:11:44;;;;;;;;;;;;;;;;;;4964977;28;1162;-59
2024/02/16 14:14:10;;;;;;;;;;;;;;;;;;4966230;28;4878;-59
2024/02/16 14:16:35;;;;;;;;;;;;;;;;;;4965326;28;5082;-59
2024/02/16 14:19:00;;;;;;;;;;;;;;;;;;4966616;28;4452;-59
2024/02/16 14:21:26;;;;;;;;;;;;;;;;;;4965954;28;5145;-59
2024/02/16 14:23:51;;;;;;;;;;;;;;;;;;4968571;28;1934;-59
2024/02/16 14:26:17;;;;;;;;;;;;;;;;;;4961264;28;4478;-59
2024/02/16 14:28:42;;;;;;;;;;;;;;;;;;4965145;28;5214;-58
2024/02/16 14:31:08;;;;;;;;;;;;;;;;;;4967863;28;4620;-59
2024/02/16 14:33:34;;;;;;;;;;;;;;;;;;4950780;28;4728;-60
2024/02/16 14:36:00;;;;;;;;;;;;;;;;;;4957633;28;1117;-60
2024/02/16 14:38:25;;;;;;;;;;;;;;;;;;4967930;28;5104;-59
2024/02/16 14:40:51;;;;;;;;;;;;;;;;;;4968018;28;5372;-59
2024/02/16 14:43:16;;;;;;;;;;;;;;;;;;4961100;28;5552;-59
2024/02/16 14:45:41;;;;;;;;;;;;;;;;;;4967759;28;5068;-59
2024/02/16 14:48:07;;;;;;;;;;;;;;;;;;4961503;28;1155;-60
2024/02/16 14:50:32;;;;;;;;;;;;;;;;;;4960703;28;4720;-59
2024/02/16 14:52:57;;;;;;;;;;;;;;;;;;4967083;28;5013;-59
2024/02/16 14:55:23;;;;;;;;;;;;;;;;;;4968082;28;5943;-59
2024/02/16 14:57:48;;;;;;;;;;;;;;;;;;4962898;28;5455;-60
2024/02/16 15:00:14;;;;;;;;;;;;;;;;;;4966318;28;5093;-59
2024/02/16 15:02:41;;;;;;;;;;;;;;;;;;4964920;28;1075;-59
2024/02/16 15:05:06;;;;;;;;;;;;;;;;;;4964139;28;5145;-59
2024/02/16 15:07:32;;;;;;;;;;;;;;;;;;4964499;28;4900;-58
2024/02/16 15:09:57;;;;;;;;;;;;;;;;;;4965010;28;4477;-59
2024/02/16 15:12:23;;;;;;;;;;;;;;;;;;4964599;28;5176;-58
2024/02/16 15:14:49;;;;;;;;;;;;;;;;;;4963554;28;1202;-59
2024/02/16 15:17:15;;;;;;;;;;;;;;;;;;4966448;28;5037;-58
2024/02/16 15:19:40;;;;;;;;;;;;;;;;;;4968179;28;4889;-59
2024/02/16 15:22:06;;;;;;;;;;;;;;;;;;4968992;28;5065;-59
2024/02/16 15:24:31;;;;;;;;;;;;;;;;;;4967699;28;6016;-59
2024/02/16 15:26:57;;;;;;;;;;;;;;;;;;4965468;28;3292;-58
2024/02/16 15:29:22;;;;;;;;;;;;;;;;;;4964918;28;5150;-59
2024/02/16 15:31:48;;;;;;;;;;;;;;;;;;4970773;28;5154;-58
2024/02/16 15:34:13;;;;;;;;;;;;;;;;;;4970715;28;5107;-58
2024/02/16 15:36:39;;;;;;;;;;;;;;;;;;4968317;28;4555;-58
2024/02/16 15:39:04;;;;;;;;;;;;;;;;;;4967940;28;3314;-64
2024/02/16 15:41:29;;;;;;;;;;;;;;;;;;4964795;28;4608;-65
2024/02/16 15:43:55;;;;;;;;;;;;;;;;;;4962984;28;5158;-65
2024/02/16 15:46:20;;;;;;;;;;;;;;;;;;4965294;28;4981;-65
2024/02/16 15:48:46;;;;;;;;;;;;;;;;;;4948475;28;5108;-64
2024/02/16 15:51:12;;;;;;;;;;;;;;;;;;4967070;28;5127;-65
2024/02/16 15:53:37;;;;;;;;;;;;;;;;;;4967329;28;1774;-65
2024/02/16 15:56:04;;;;;;;;;;;;;;;;;;4966633;28;5149;-65
2024/02/16 15:58:29;;;;;;;;;;;;;;;;;;4964909;28;4550;-65
2024/02/16 16:00:55;;;;;;;;;;;;;;;;;;4965760;28;5141;-65
2024/02/16 16:03:20;;;;;;;;;;;;;;;;;;4968051;28;5443;-64
2024/02/16 16:05:46;;;;;;;;;;;;;;;;;;4968502;28;1973;-64
2024/02/16 16:08:11;;;;;;;;;;;;;;;;;;4967409;28;4966;-65
2024/02/16 16:10:37;;;;;;;;;;;;;;;;;;4966941;28;5378;-64
2024/02/16 16:13:06;;;;;;;;;;;;;;;;;;4966965;28;5055;-64
2024/02/16 16:15:32;;;;;;;;;;;;;;;;;;4967147;28;5219;-65
2024/02/16 16:17:57;;;;;;;;;;;;;;;;;;4944981;28;1297;-65
2024/02/16 16:20:22;;;;;;;;;;;;;;;;;;4946271;28;5119;-66
2024/02/16 16:22:48;;;;;;;;;;;;;;;;;;4962547;28;4703;-66
2024/02/16 16:25:13;;;;;;;;;;;;;;;;;;4969941;28;6090;-67
2024/02/16 16:27:38;;;;;;;;;;;;;;;;;;4966089;28;5125;-67
2024/02/16 16:30:04;;;;;;;;;;;;;;;;;;4954763;28;1278;-66
2024/02/16 16:32:29;;;;;;;;;;;;;;;;;;4969733;28;4813;-66
2024/02/16 16:34:56;;;;;;;;;;;;;;;;;;4970099;28;5017;-65
2024/02/16 16:37:21;;;;;;;;;;;;;;;;;;4949715;28;4538;-66
2024/02/16 16:39:47;;;;;;;;;;;;;;;;;;4962101;28;5233;-66
2024/02/16 16:42:13;;;;;;;;;;;;;;;;;;4964872;28;4509;-56
2024/02/16 16:44:39;;;;;;;;;;;;;;;;;;4968248;28;3318;-67
2024/02/16 16:47:05;;;;;;;;;;;;;;;;;;4964664;28;4612;-68
2024/02/16 16:49:30;;;;;;;;;;;;;;;;;;4963189;28;5192;-56
2024/02/16 16:51:55;;;;;;;;;;;;;;;;;;4964293;28;4683;-55